Impacts METAR Board
IDs:

KSTL - St Louis/Lambert Int, MO, US

Updated at: 2000 UTC 16 Aug 2018
Potential Impact None Slight Moderate High
Time 16/08Z 16/09Z 16/10Z 16/11Z 16/12Z 16/13Z 16/14Z 16/15Z 16/16Z 16/17Z 16/18Z 16/19Z 16/20Z
Temp74 74 73 73 74 75 78 81 84 84 88 89 91
Dewpt71 71 71 71 71 71 72 73 74 73 73 72 72
Altim29.91 29.91 29.91 29.93 29.95 29.96 29.96 29.97 29.98 29.97 29.97 29.95 29.94
VIS10 10 10 10 10 10 10 10 10 10 10 10 10
CIG-- -- -- -- 80 150 -- -- -- 250 250 250 250
CoverFEWFEWSCTSCTBKNBKNSCTFEWSCTBKNBKNBKNBKN
FltCatVFRVFRVFRVFRVFRVFRVFRVFRVFRVFRVFRVFRVFR
WX--------------------------
WDir2202002002102102302500220290280250260
WSpd5 5 4 3 5 9 8 3 8 4 8 7 7
WGst-- -- -- -- -- -- -- -- -- -- -- -- --
Raw hourly METARs
KSTL 160751Z 22005KT 10SM FEW040 23/22 A2991 RMK AO2 SLP115 T02330217
KSTL 160851Z 20005KT 10SM FEW040 FEW100 23/22 A2991 RMK AO2 SLP117 T02330217 53003
KSTL 160951Z 20004KT 10SM SCT075 23/22 A2991 RMK AO2 SLP117 T02280217
KSTL 161051Z 21003KT 10SM SCT075 23/22 A2993 RMK AO2 SLP122 T02280217
KSTL 161151Z 21005KT 10SM BKN080 BKN110 23/22 A2995 RMK AO2 SLP132 70038 T02330217 10244 20228 53013
KSTL 161251Z 23009KT 10SM FEW015 SCT100 BKN150 24/22 A2996 RMK AO2 SLP135 T02390217 $
KSTL 161351Z 25008KT 10SM FEW017 FEW100 SCT150 26/22 A2996 RMK AO2 SLP135 T02560222 $
KSTL 161451Z VRB03KT 10SM FEW018 FEW100 FEW250 27/23 A2997 RMK AO2 SLP136 T02720228 $
KSTL 161551Z 22008KT 10SM SCT020 SCT100 SCT250 29/23 A2998 RMK AO2 SLP140 T02890233 $
KSTL 161651Z 29004KT 10SM FEW023 SCT031 SCT100 BKN250 29/23 A2997 RMK AO2 SLP137 T02890228
KSTL 161751Z 28008KT 10SM SCT032 SCT100 BKN250 31/23 A2997 RMK AO2 SLP135 T03110228 10311 20233 50000
KSTL 161851Z 25007KT 10SM SCT036 SCT100 BKN250 32/22 A2995 RMK AO2 SLP130 T03170222
KSTL 161951Z 26007KT 220V290 10SM SCT040 SCT100 BKN250 33/22 A2994 RMK AO2 SLP125 T03280222



Page loaded:  20:20 UTC  |   01:20 PM Pacific  |   02:20 PM Mountain  |   03:20 PM Central  |   04:20 PM Eastern

 

ADVISORIES

FORECASTS

FORECASTS

OBSERVATIONS

USER TOOLS

ABOUT US